Time;durP1;ratioP1;P1;durP2;ratioP2;P2;SDS_P1;SDS_P2;PMS_P1;PMS_P2;Temp;Humidity;BMP_temperature;BMP_pressure;BME280_temperature;BME280_humidity;BME280_pressure;Samples;Min_cycle;Max_cycle;Signal;HPM_P1;HPM_P2
2022/02/27 00:02:13;;;;;;;15.05;7.60;;;2.00;99.90;;;;;;5048118;28;20343;-68
2022/02/27 00:04:38;;;;;;;14.52;6.68;;;1.90;99.90;;;;;;5048309;28;20053;-68
2022/02/27 00:07:04;;;;;;;11.25;6.35;;;1.90;99.90;;;;;;5046924;28;20036;-68
2022/02/27 00:09:30;;;;;;;14.10;7.30;;;1.90;99.90;;;;;;5047451;28;20461;-68
2022/02/27 00:11:56;;;;;;;14.88;5.93;;;1.80;99.90;;;;;;5047835;28;20556;-67
2022/02/27 00:14:22;;;;;;;17.50;7.80;;;1.80;99.90;;;;;;5048053;28;20033;-68
2022/02/27 00:16:47;;;;;;;12.02;7.47;;;1.80;99.90;;;;;;5047608;28;20172;-67
2022/02/27 00:19:15;;;;;;;14.95;7.70;;;1.80;99.90;;;;;;5048015;28;20108;-68
2022/02/27 00:21:42;;;;;;;15.48;7.22;;;1.70;99.90;;;;;;5047328;28;20116;-68
2022/02/27 00:24:10;;;;;;;12.90;6.38;;;1.70;99.90;;;;;;5047361;28;20028;-68
2022/02/27 00:26:35;;;;;;;11.55;6.68;;;1.70;99.90;;;;;;5048206;28;20037;-67
2022/02/27 00:29:01;;;;;;;15.82;6.80;;;1.60;99.90;;;;;;5048333;28;20082;-67
2022/02/27 00:31:26;;;;;;;12.45;6.32;;;1.60;99.90;;;;;;5047995;28;20029;-68
2022/02/27 00:33:52;;;;;;;12.38;5.97;;;1.60;99.90;;;;;;5048095;28;20082;-67
2022/02/27 00:36:17;;;;;;;12.63;5.78;;;1.60;99.90;;;;;;5048016;28;20387;-68
2022/02/27 00:38:43;;;;;;;14.65;6.57;;;1.60;99.90;;;;;;5047188;28;20043;-67
2022/02/27 00:41:08;;;;;;;13.35;5.95;;;1.60;99.90;;;;;;5048184;28;20029;-68
2022/02/27 00:43:34;;;;;;;16.23;5.80;;;1.50;99.90;;;;;;5048164;28;20385;-68
2022/02/27 00:46:01;;;;;;;16.75;6.80;;;1.50;99.90;;;;;;5047953;28;20021;-68
2022/02/27 00:48:26;;;;;;;13.73;7.00;;;1.40;99.90;;;;;;5048081;28;20028;-68
2022/02/27 00:50:52;;;;;;;13.45;7.68;;;1.30;99.90;;;;;;5047548;28;20040;-67
2022/02/27 00:53:17;;;;;;;12.55;6.30;;;1.30;99.90;;;;;;5047255;28;20033;-68
2022/02/27 00:55:43;;;;;;;10.38;4.78;;;1.30;99.90;;;;;;5046177;28;20420;-67
2022/02/27 00:58:08;;;;;;;11.57;6.60;;;1.20;99.90;;;;;;5047967;28;20227;-67
2022/02/27 01:00:34;;;;;;;15.70;6.40;;;1.20;99.90;;;;;;5047420;28;20086;-68
2022/02/27 01:02:59;;;;;;;12.60;5.20;;;1.20;99.90;;;;;;5046118;28;20531;-67
2022/02/27 01:05:25;;;;;;;15.77;6.35;;;1.20;99.90;;;;;;5047847;28;20033;-67
2022/02/27 01:07:50;;;;;;;12.48;6.50;;;1.10;99.90;;;;;;5047626;28;20403;-67
2022/02/27 01:10:16;;;;;;;9.05;4.97;;;1.10;99.90;;;;;;5049521;28;20028;-67
2022/02/27 01:12:41;;;;;;;14.50;5.78;;;1.10;99.90;;;;;;5051834;28;20025;-67
2022/02/27 01:15:08;;;;;;;11.88;5.72;;;1.10;99.90;;;;;;5051314;28;20508;-68
2022/02/27 01:17:34;;;;;;;13.80;5.32;;;1.10;99.90;;;;;;5051316;28;20037;-67
2022/02/27 01:20:00;;;;;;;10.45;5.38;;;1.20;99.90;;;;;;5050045;28;20108;-68
2022/02/27 01:22:25;;;;;;;14.75;5.68;;;1.10;99.90;;;;;;5051380;28;20079;-68
2022/02/27 01:24:51;;;;;;;10.90;5.53;;;1.10;99.90;;;;;;5051136;28;20035;-68
2022/02/27 01:27:17;;;;;;;11.63;5.50;;;1.00;99.90;;;;;;5051750;28;20075;-68
2022/02/27 01:29:42;;;;;;;12.93;4.65;;;1.00;99.90;;;;;;5051554;28;20064;-68
2022/02/27 01:32:08;;;;;;;12.02;6.28;;;1.00;99.90;;;;;;5051488;28;20029;-68
2022/02/27 01:34:33;;;;;;;15.20;6.35;;;1.00;99.90;;;;;;5051029;28;20029;-68
2022/02/27 01:36:59;;;;;;;10.25;5.10;;;0.90;99.90;;;;;;5050964;28;20021;-68
2022/02/27 01:39:25;;;;;;;9.20;5.57;;;0.90;99.90;;;;;;5051319;28;20485;-67
2022/02/27 01:41:51;;;;;;;10.32;7.47;;;0.90;99.90;;;;;;5051162;28;20025;-68
2022/02/27 01:44:16;;;;;;;8.77;4.95;;;0.90;99.90;;;;;;5051146;28;20024;-67
2022/02/27 01:46:55;;;;;;;17.85;6.93;;;0.90;99.90;;;;;;5049890;28;20051;-68
2022/02/27 01:49:21;;;;;;;10.18;6.03;;;0.90;99.90;;;;;;5051380;28;20025;-67
2022/02/27 01:51:46;;;;;;;21.42;8.70;;;0.90;99.90;;;;;;5050659;28;20106;-67
2022/02/27 01:54:12;;;;;;;14.38;6.07;;;0.90;99.90;;;;;;5049943;28;20035;-67
2022/02/27 01:56:37;;;;;;;13.07;6.30;;;0.90;99.90;;;;;;5050243;28;20025;-68
2022/02/27 01:59:03;;;;;;;12.75;6.38;;;0.80;99.90;;;;;;5050970;28;20055;-68
2022/02/27 02:01:28;;;;;;;10.57;5.05;;;0.80;99.90;;;;;;5050405;28;20460;-67
2022/02/27 02:03:54;;;;;;;14.60;5.80;;;0.80;99.90;;;;;;5050513;28;20029;-67
2022/02/27 02:06:19;;;;;;;10.82;5.60;;;0.80;99.90;;;;;;5050359;28;20606;-67
2022/02/27 02:08:45;;;;;;;9.75;4.78;;;0.70;99.90;;;;;;5050216;28;20029;-67
2022/02/27 02:11:12;;;;;;;9.85;5.63;;;0.70;99.90;;;;;;5048534;28;20020;-67
2022/02/27 02:13:42;;;;;;;12.52;5.50;;;0.70;99.90;;;;;;5049562;28;20040;-67
2022/02/27 02:16:07;;;;;;;12.48;6.13;;;0.70;99.90;;;;;;5049568;28;20021;-67
2022/02/27 02:18:33;;;;;;;10.77;4.40;;;0.70;99.90;;;;;;5049972;28;20060;-68
2022/02/27 02:20:58;;;;;;;16.77;6.43;;;0.70;99.90;;;;;;5050407;28;20071;-67
2022/02/27 02:23:24;;;;;;;14.45;7.80;;;0.70;99.90;;;;;;5050758;28;20401;-68
2022/02/27 02:25:49;;;;;;;13.80;5.15;;;0.60;99.90;;;;;;5050565;28;20108;-67
2022/02/27 02:28:15;;;;;;;12.00;7.18;;;0.70;99.90;;;;;;5050585;28;20036;-67
2022/02/27 02:30:40;;;;;;;21.27;5.72;;;0.70;99.90;;;;;;5049121;28;20117;-67
2022/02/27 02:33:06;;;;;;;17.23;7.30;;;0.60;99.90;;;;;;5050238;28;20505;-68
2022/02/27 02:35:31;;;;;;;12.95;6.90;;;0.70;99.90;;;;;;5049949;28;20032;-67
2022/02/27 02:37:57;;;;;;;9.35;3.92;;;0.60;99.90;;;;;;5050139;28;20025;-67
2022/02/27 02:40:24;;;;;;;8.80;4.38;;;0.60;99.90;;;;;;5049894;28;20070;-67
2022/02/27 02:42:49;;;;;;;7.93;3.70;;;0.60;99.90;;;;;;5049953;28;20028;-67
2022/02/27 02:45:15;;;;;;;17.75;7.55;;;0.60;99.90;;;;;;5048644;28;20385;-67
2022/02/27 02:47:48;;;;;;;12.52;5.68;;;0.60;99.90;;;;;;5049697;28;20493;-67
2022/02/27 02:50:15;;;;;;;13.40;5.88;;;0.60;99.90;;;;;;5049578;28;20039;-67
2022/02/27 02:52:41;;;;;;;13.25;5.35;;;0.60;99.90;;;;;;5049362;28;20078;-67
2022/02/27 02:55:12;;;;;;;15.57;8.40;;;0.70;99.90;;;;;;5049152;28;20115;-67
2022/02/27 02:57:38;;;;;;;11.73;5.32;;;0.70;99.90;;;;;;5049067;28;20029;-67
2022/02/27 03:00:08;;;;;;;13.07;6.43;;;0.70;99.90;;;;;;5048919;28;20472;-67
2022/02/27 03:02:34;;;;;;;22.17;8.05;;;0.70;99.90;;;;;;5048381;28;20357;-67
2022/02/27 03:04:59;;;;;;;17.52;7.30;;;0.70;99.90;;;;;;5049666;28;20112;-67
2022/02/27 03:07:25;;;;;;;16.83;5.40;;;0.70;99.90;;;;;;5049367;28;20033;-67
2022/02/27 03:09:50;;;;;;;12.73;5.95;;;0.70;99.90;;;;;;5048271;28;20024;-67
2022/02/27 03:12:16;;;;;;;13.10;6.35;;;0.70;99.90;;;;;;5049232;28;20131;-67
2022/02/27 03:14:42;;;;;;;16.95;6.90;;;0.70;99.90;;;;;;5048542;28;20025;-67
2022/02/27 03:17:07;;;;;;;9.18;4.68;;;0.70;99.90;;;;;;5048169;28;20029;-67
2022/02/27 03:19:33;;;;;;;11.07;4.20;;;0.70;99.90;;;;;;5048752;28;20041;-67
2022/02/27 03:21:58;;;;;;;13.80;5.53;;;0.70;99.90;;;;;;5050104;28;20028;-68
2022/02/27 03:24:24;;;;;;;13.68;7.82;;;0.70;99.90;;;;;;5049356;28;20444;-67
2022/02/27 03:26:49;;;;;;;18.70;7.00;;;0.70;99.90;;;;;;5049694;28;20112;-67
2022/02/27 03:29:15;;;;;;;17.48;5.50;;;0.70;99.90;;;;;;5049132;28;20448;-67
2022/02/27 03:31:40;;;;;;;14.15;5.70;;;0.70;99.90;;;;;;5049100;28;20025;-67
2022/02/27 03:34:06;;;;;;;14.07;6.10;;;0.70;99.90;;;;;;5049067;28;20123;-67
2022/02/27 03:36:31;;;;;;;10.63;6.50;;;0.80;99.90;;;;;;5047923;28;20037;-67
2022/02/27 03:38:57;;;;;;;13.18;6.03;;;0.80;99.90;;;;;;5048360;28;20510;-67
2022/02/27 03:41:22;;;;;;;14.27;6.50;;;0.80;99.90;;;;;;5049029;28;20032;-67
2022/02/27 03:43:48;;;;;;;15.88;5.40;;;0.80;99.90;;;;;;5048299;28;20021;-67
2022/02/27 03:46:13;;;;;;;15.05;6.13;;;0.80;99.90;;;;;;5048985;28;20064;-67
2022/02/27 03:48:40;;;;;;;8.88;4.28;;;0.80;99.90;;;;;;5048310;28;20452;-67
2022/02/27 03:51:06;;;;;;;7.13;4.22;;;0.90;99.90;;;;;;5047542;28;20116;-67
2022/02/27 03:53:32;;;;;;;15.70;5.05;;;0.90;99.90;;;;;;5048060;28;20143;-67
2022/02/27 03:55:57;;;;;;;9.60;6.03;;;0.90;99.90;;;;;;5048696;28;20528;-67
2022/02/27 03:58:23;;;;;;;9.82;4.97;;;0.90;99.90;;;;;;5047960;28;20033;-67
2022/02/27 04:00:48;;;;;;;11.20;5.22;;;0.90;99.90;;;;;;5048421;28;20024;-67
2022/02/27 04:03:14;;;;;;;17.67;7.93;;;0.90;99.90;;;;;;5047806;28;20115;-67
2022/02/27 04:05:40;;;;;;;13.45;6.53;;;0.90;99.90;;;;;;5048099;28;20017;-67
2022/02/27 04:08:06;;;;;;;12.70;6.25;;;0.90;99.90;;;;;;5046928;28;20388;-67
2022/02/27 04:10:31;;;;;;;16.17;7.28;;;0.90;99.90;;;;;;5047215;28;20044;-67
2022/02/27 04:12:57;;;;;;;11.43;5.95;;;0.80;99.90;;;;;;5048009;28;20033;-67
2022/02/27 04:15:22;;;;;;;6.50;5.30;;;0.80;99.90;;;;;;5047973;28;20029;-67
2022/02/27 04:17:48;;;;;;;11.63;6.32;;;0.70;99.90;;;;;;5047655;28;20037;-67
2022/02/27 04:20:13;;;;;;;10.73;5.45;;;0.60;99.90;;;;;;5048648;28;20025;-67
2022/02/27 04:22:39;;;;;;;10.10;4.78;;;0.60;99.90;;;;;;5048482;28;20473;-67
2022/02/27 04:25:05;;;;;;;15.60;7.88;;;0.60;99.90;;;;;;5046781;28;20017;-67
2022/02/27 04:27:31;;;;;;;10.48;4.28;;;0.50;99.90;;;;;;5048113;28;20040;-67
2022/02/27 04:29:56;;;;;;;21.02;7.88;;;0.50;99.90;;;;;;5047784;28;20036;-67
2022/02/27 04:32:22;;;;;;;19.00;10.18;;;0.50;99.90;;;;;;5048326;28;20021;-67
2022/02/27 04:34:47;;;;;;;22.55;11.90;;;0.50;99.90;;;;;;5048057;28;20032;-67
2022/02/27 04:37:13;;;;;;;27.00;14.25;;;0.40;99.90;;;;;;5048147;28;20471;-67
2022/02/27 04:39:39;;;;;;;21.48;11.18;;;0.40;99.90;;;;;;5047969;28;20052;-67
2022/02/27 04:42:04;;;;;;;18.23;8.07;;;0.40;99.90;;;;;;5047179;28;20431;-67
2022/02/27 04:44:30;;;;;;;38.25;16.17;;;0.40;99.90;;;;;;5047800;28;20043;-67
2022/02/27 04:46:56;;;;;;;11.93;7.53;;;0.40;99.90;;;;;;5047697;28;20484;-68
2022/02/27 04:49:21;;;;;;;16.23;8.50;;;0.40;99.90;;;;;;5047154;28;20096;-67
2022/02/27 04:51:47;;;;;;;18.10;7.53;;;0.40;99.90;;;;;;5047933;28;20504;-67
2022/02/27 04:54:12;;;;;;;23.73;10.27;;;0.30;99.90;;;;;;5047507;28;20032;-67
2022/02/27 04:56:38;;;;;;;24.05;11.50;;;0.30;99.90;;;;;;5047415;28;20037;-67
2022/02/27 04:59:03;;;;;;;20.65;9.68;;;0.30;99.90;;;;;;5047390;28;20079;-67
2022/02/27 05:01:29;;;;;;;25.23;9.90;;;0.30;99.90;;;;;;5046718;28;20056;-67
2022/02/27 05:03:54;;;;;;;50.25;23.92;;;0.30;99.90;;;;;;5047247;28;20025;-67
2022/02/27 05:06:20;;;;;;;22.88;10.20;;;0.30;99.90;;;;;;5047318;28;20033;-67
2022/02/27 05:08:45;;;;;;;27.70;14.48;;;0.30;99.90;;;;;;5047139;28;20032;-67
2022/02/27 05:11:11;;;;;;;37.67;17.23;;;0.30;99.90;;;;;;5047338;28;20171;-67
2022/02/27 05:13:37;;;;;;;33.63;15.50;;;0.30;99.90;;;;;;5046742;28;20083;-67
2022/02/27 05:16:02;;;;;;;16.52;7.95;;;0.30;99.90;;;;;;5046291;28;20033;-67
2022/02/27 05:18:28;;;;;;;24.45;11.60;;;0.30;99.90;;;;;;5047644;28;20021;-67
2022/02/27 05:20:53;;;;;;;31.45;17.50;;;0.30;99.90;;;;;;5048154;28;20025;-67
2022/02/27 05:23:19;;;;;;;18.70;8.23;;;0.30;99.90;;;;;;5047783;28;20473;-67
2022/02/27 05:25:44;;;;;;;14.95;7.25;;;0.30;99.90;;;;;;5046678;28;20116;-67
2022/02/27 05:28:10;;;;;;;17.38;10.00;;;0.30;99.90;;;;;;5047853;28;20043;-67
2022/02/27 05:30:35;;;;;;;13.70;7.30;;;0.30;99.90;;;;;;5047148;28;20033;-68
2022/02/27 05:33:01;;;;;;;12.82;4.47;;;0.30;99.90;;;;;;5046668;28;20099;-67
2022/02/27 05:35:26;;;;;;;13.98;6.82;;;0.20;99.90;;;;;;5046522;28;20515;-67
2022/02/27 05:37:52;;;;;;;10.32;6.90;;;0.20;99.90;;;;;;5047479;28;20063;-67
2022/02/27 05:40:18;;;;;;;19.65;9.18;;;0.20;99.90;;;;;;5047240;28;20473;-67
2022/02/27 05:42:43;;;;;;;25.23;7.65;;;0.20;99.90;;;;;;5047104;28;20020;-67
2022/02/27 05:45:11;;;;;;;15.63;7.03;;;0.10;99.90;;;;;;5046905;28;20071;-67
2022/02/27 05:47:36;;;;;;;14.00;6.38;;;0.10;99.90;;;;;;5045149;28;20028;-67
2022/02/27 05:50:03;;;;;;;17.38;6.03;;;0.10;99.90;;;;;;5047209;28;20072;-67
2022/02/27 05:52:29;;;;;;;16.90;8.18;;;0.10;99.90;;;;;;5046901;28;20043;-67
2022/02/27 05:54:54;;;;;;;10.80;6.55;;;0.10;99.90;;;;;;5046028;28;20096;-67
2022/02/27 05:57:20;;;;;;;14.48;8.10;;;0.10;99.90;;;;;;5050579;28;20037;-67
2022/02/27 05:59:45;;;;;;;10.55;6.07;;;0.10;99.90;;;;;;5050184;28;20029;-67
2022/02/27 06:02:11;;;;;;;12.65;5.90;;;0.20;99.90;;;;;;5050739;28;20107;-67
2022/02/27 06:04:36;;;;;;;16.75;8.15;;;0.20;99.90;;;;;;5048858;28;20044;-67
2022/02/27 06:07:02;;;;;;;17.73;7.97;;;0.20;99.90;;;;;;5050573;28;20021;-67
2022/02/27 06:09:28;;;;;;;18.80;8.27;;;0.20;99.90;;;;;;5050296;28;20039;-67
2022/02/27 06:11:53;;;;;;;10.82;6.13;;;0.20;99.90;;;;;;5050461;28;20033;-67
2022/02/27 06:14:19;;;;;;;14.43;7.10;;;0.20;99.90;;;;;;5045568;28;20033;-67
2022/02/27 06:16:45;;;;;;;;;;;0.20;99.90;;;;;;5050018;28;20029;-67
2022/02/27 06:19:10;;;;;;;14.68;7.25;;;0.20;99.90;;;;;;5049701;28;19921;-67
2022/02/27 06:21:36;;;;;;;12.95;5.57;;;0.20;99.90;;;;;;5050073;28;20116;-67
2022/02/27 06:24:03;;;;;;;15.73;7.75;;;0.20;99.90;;;;;;5048761;28;20405;-68
2022/02/27 06:26:30;;;;;;;15.13;8.38;;;0.20;99.90;;;;;;5049894;28;20032;-68
2022/02/27 06:28:55;;;;;;;17.83;8.05;;;0.20;99.90;;;;;;5049461;28;20036;-67
2022/02/27 06:31:21;;;;;;;13.98;7.95;;;0.20;99.90;;;;;;5048950;28;20106;-67
2022/02/27 06:33:46;;;;;;;14.68;6.70;;;0.30;99.90;;;;;;5047592;28;20059;-67
2022/02/27 06:36:12;;;;;;;16.40;6.30;;;0.30;99.90;;;;;;5050078;28;20037;-68
2022/02/27 06:38:37;;;;;;;10.63;5.97;;;0.30;99.90;;;;;;5048873;28;20029;-67
2022/02/27 06:41:03;;;;;;;11.60;6.68;;;0.30;99.90;;;;;;5049084;28;20051;-67
2022/02/27 06:43:32;;;;;;;8.90;6.38;;;0.30;99.90;;;;;;5046217;28;20037;-67
2022/02/27 06:45:59;;;;;;;16.88;7.88;;;0.30;99.90;;;;;;5045186;28;20028;-67
2022/02/27 06:48:24;;;;;;;18.70;10.68;;;0.30;99.90;;;;;;5045824;28;20095;-68
2022/02/27 06:50:50;;;;;;;14.27;7.03;;;0.40;99.90;;;;;;5048884;28;20488;-68
2022/02/27 06:53:15;;;;;;;13.32;7.28;;;0.70;99.90;;;;;;5047499;28;20114;-68
2022/02/27 06:55:41;;;;;;;13.38;6.82;;;0.80;99.90;;;;;;5048711;28;20347;-68
2022/02/27 06:58:06;;;;;;;13.30;6.05;;;0.80;99.90;;;;;;5048452;28;20037;-67
2022/02/27 07:00:32;;;;;;;13.45;6.20;;;0.70;99.90;;;;;;5048427;28;20031;-68
2022/02/27 07:02:58;;;;;;;14.10;7.82;;;0.70;99.90;;;;;;5048435;28;20040;-68
2022/02/27 07:05:24;;;;;;;12.35;7.28;;;0.70;99.90;;;;;;5048637;28;20078;-68
2022/02/27 07:07:49;;;;;;;13.25;6.72;;;0.70;99.90;;;;;;5046505;28;20554;-68
2022/02/27 07:10:16;;;;;;;13.52;7.20;;;0.70;99.90;;;;;;5049068;28;20025;-68
2022/02/27 07:12:45;;;;;;;13.15;7.63;;;0.70;99.90;;;;;;5047542;28;20224;-68
2022/02/27 07:15:10;;;;;;;14.85;7.97;;;0.80;99.90;;;;;;5046462;28;20071;-68
2022/02/27 07:17:36;;;;;;;12.27;6.95;;;0.80;99.90;;;;;;5048202;28;20025;-67
2022/02/27 07:20:02;;;;;;;17.58;8.18;;;0.90;99.90;;;;;;5047774;28;20024;-68
2022/02/27 07:22:28;;;;;;;21.00;9.27;;;0.90;99.90;;;;;;5047244;28;20044;-68
2022/02/27 07:24:55;;;;;;;14.90;8.05;;;0.90;99.90;;;;;;5048436;28;20059;-68
2022/02/27 07:27:21;;;;;;;13.88;8.18;;;1.00;99.90;;;;;;5047520;28;20103;-68
2022/02/27 07:29:47;;;;;;;14.75;8.45;;;1.00;99.90;;;;;;5048391;28;20279;-67
2022/02/27 07:32:14;;;;;;;14.48;7.80;;;1.00;99.90;;;;;;5047573;28;20496;-67
2022/02/27 07:34:43;;;;;;;14.73;8.13;;;1.10;99.90;;;;;;5047217;28;20159;-67
2022/02/27 07:37:09;;;;;;;12.93;7.18;;;1.10;99.90;;;;;;5047374;28;20029;-67
2022/02/27 07:39:34;;;;;;;14.18;8.25;;;1.20;99.90;;;;;;5048128;28;20516;-68
2022/02/27 07:42:00;;;;;;;11.27;7.35;;;1.30;99.90;;;;;;5047439;28;20079;-68
2022/02/27 07:44:26;;;;;;;20.50;8.52;;;1.40;99.90;;;;;;5047057;28;20060;-68
2022/02/27 07:46:52;;;;;;;14.45;8.80;;;1.50;99.90;;;;;;5045474;28;20047;-69
2022/02/27 07:49:17;;;;;;;17.23;7.10;;;1.60;99.90;;;;;;5048374;28;20037;-68
2022/02/27 07:51:43;;;;;;;17.10;7.90;;;1.60;99.90;;;;;;5047388;28;20037;-68
2022/02/27 07:54:09;;;;;;;19.80;8.77;;;1.70;99.90;;;;;;5047282;28;21169;-67
2022/02/27 07:56:34;;;;;;;17.02;9.30;;;1.80;99.90;;;;;;5047657;28;20072;-68
2022/02/27 07:59:00;;;;;;;22.40;9.48;;;1.90;99.90;;;;;;5047588;28;20024;-68
2022/02/27 08:01:27;;;;;;;;;;;2.00;99.90;;;;;;5047250;28;20557;-67
2022/02/27 08:03:52;;;;;;;17.30;8.02;;;2.10;99.90;;;;;;5048091;28;20027;-68
2022/02/27 08:06:18;;;;;;;14.63;8.15;;;2.20;99.90;;;;;;5047713;28;20116;-68
2022/02/27 08:08:44;;;;;;;14.95;6.93;;;2.30;99.90;;;;;;5047697;28;20547;-67
2022/02/27 08:11:11;;;;;;;15.63;9.40;;;2.40;99.90;;;;;;5046750;28;20033;-67
2022/02/27 08:13:37;;;;;;;12.82;7.57;;;2.50;99.90;;;;;;5046738;28;20037;-68
2022/02/27 08:16:02;;;;;;;;;;;2.60;99.90;;;;;;5047422;28;20077;-68
2022/02/27 08:18:29;;;;;;;15.90;7.90;;;2.60;99.90;;;;;;5047011;28;19912;-69
2022/02/27 08:20:55;;;;;;;12.65;7.95;;;2.70;99.90;;;;;;5046049;28;20059;-68
2022/02/27 08:23:21;;;;;;;;;;;2.70;99.90;;;;;;5045203;28;20111;-69
2022/02/27 08:25:48;;;;;;;14.30;7.68;;;2.80;99.90;;;;;;5046501;28;19919;-68
2022/02/27 08:28:15;;;;;;;17.02;7.55;;;2.90;99.90;;;;;;5045528;28;20413;-68
2022/02/27 08:30:40;;;;;;;18.65;8.38;;;3.00;99.90;;;;;;5046383;28;20485;-68
2022/02/27 08:33:06;;;;;;;14.40;7.95;;;3.00;99.90;;;;;;5046988;28;20075;-68
2022/02/27 08:35:32;;;;;;;13.25;7.97;;;3.10;99.90;;;;;;5047579;28;20037;-69
2022/02/27 08:37:57;;;;;;;17.85;8.07;;;3.20;99.90;;;;;;5045415;28;20037;-68
2022/02/27 08:40:23;;;;;;;12.70;7.40;;;3.50;99.90;;;;;;5047925;28;20087;-68
2022/02/27 08:42:53;;;;;;;14.93;7.97;;;3.50;99.90;;;;;;5046496;28;20028;-68
2022/02/27 08:45:19;;;;;;;19.05;9.05;;;3.50;99.90;;;;;;5044505;28;20051;-66
2022/02/27 08:47:44;;;;;;;14.88;7.53;;;3.50;99.90;;;;;;5047239;28;20037;-68
2022/02/27 08:50:10;;;;;;;20.55;8.68;;;3.60;99.90;;;;;;5046988;28;20401;-68
2022/02/27 08:52:36;;;;;;;20.27;9.18;;;3.60;99.90;;;;;;5046010;28;20033;-68
2022/02/27 08:55:01;;;;;;;24.13;10.35;;;3.70;99.90;;;;;;5047251;28;20044;-68
2022/02/27 08:57:27;;;;;;;18.40;9.15;;;3.70;99.90;;;;;;5046835;28;20067;-68
2022/02/27 08:59:52;;;;;;;16.55;9.27;;;3.80;99.90;;;;;;5046251;28;20033;-68
2022/02/27 09:02:18;;;;;;;18.50;8.82;;;3.80;99.90;;;;;;5046168;28;20103;-68
2022/02/27 09:04:44;;;;;;;18.52;9.55;;;3.90;99.90;;;;;;5046490;28;20033;-69
2022/02/27 09:07:09;;;;;;;17.95;8.52;;;3.90;99.90;;;;;;5047478;28;20091;-69
2022/02/27 09:09:35;;;;;;;14.18;9.05;;;4.00;99.90;;;;;;5047571;28;20029;-69
2022/02/27 09:12:04;;;;;;;20.17;9.82;;;4.00;99.90;;;;;;5047655;28;20102;-68
2022/02/27 09:14:29;;;;;;;19.90;8.77;;;4.00;99.90;;;;;;5046713;28;20095;-68
2022/02/27 09:16:55;;;;;;;21.98;9.25;;;4.10;99.90;;;;;;5045718;28;20056;-68
2022/02/27 09:19:20;;;;;;;16.05;8.73;;;4.10;99.90;;;;;;5039729;28;20040;-68
2022/02/27 09:21:46;;;;;;;20.55;9.02;;;4.20;99.90;;;;;;5043917;28;20046;-67
2022/02/27 09:24:11;;;;;;;19.83;8.88;;;4.20;99.90;;;;;;5044091;28;20071;-68
2022/02/27 09:26:37;;;;;;;22.45;10.95;;;4.20;99.90;;;;;;5045307;28;20103;-68
2022/02/27 09:29:03;;;;;;;23.35;11.02;;;4.30;99.90;;;;;;5045890;28;20041;-68
2022/02/27 09:31:28;;;;;;;14.23;9.25;;;4.30;99.90;;;;;;5045628;28;20056;-68
2022/02/27 09:33:54;;;;;;;19.83;9.40;;;4.40;99.90;;;;;;5049146;28;20036;-69
2022/02/27 09:36:19;;;;;;;18.20;9.35;;;4.40;99.90;;;;;;5049245;28;20028;-68
2022/02/27 09:38:45;;;;;;;21.55;11.60;;;4.50;99.90;;;;;;5049274;28;20499;-68
2022/02/27 09:41:12;;;;;;;18.98;9.25;;;4.60;99.90;;;;;;5048709;28;20025;-68
2022/02/27 09:43:38;;;;;;;16.95;8.68;;;4.70;99.90;;;;;;5048943;28;20134;-68
2022/02/27 09:46:03;;;;;;;17.70;9.13;;;4.80;99.90;;;;;;5050279;28;20017;-68
2022/02/27 09:48:29;;;;;;;;;;;4.90;99.90;;;;;;5049872;28;20400;-68
2022/02/27 09:50:54;;;;;;;13.63;8.57;;;4.90;99.90;;;;;;5049340;28;20337;-68
2022/02/27 09:53:20;;;;;;;17.90;9.88;;;4.90;99.90;;;;;;5049152;28;20029;-69
2022/02/27 09:55:45;;;;;;;15.30;10.95;;;5.00;99.90;;;;;;5049234;28;20045;-69
2022/02/27 09:58:11;;;;;;;18.52;9.95;;;4.90;99.90;;;;;;5047267;28;20029;-69
2022/02/27 10:00:37;;;;;;;16.15;10.27;;;5.00;99.90;;;;;;5049882;28;20489;-69
2022/02/27 10:03:03;;;;;;;24.08;10.45;;;5.20;99.90;;;;;;5041800;28;20040;-69
2022/02/27 10:05:29;;;;;;;18.00;9.93;;;5.20;99.90;;;;;;5045338;28;20033;-68
2022/02/27 10:07:59;;;;;;;17.23;9.43;;;5.30;99.90;;;;;;5043657;28;20021;-69
2022/02/27 10:10:25;;;;;;;20.58;9.13;;;5.40;99.90;;;;;;5047258;28;20037;-69
2022/02/27 10:12:50;;;;;;;14.95;8.32;;;5.40;99.90;;;;;;5048710;28;20067;-69
2022/02/27 10:15:16;;;;;;;22.40;9.60;;;5.40;99.90;;;;;;5046281;28;20027;-69
2022/02/27 10:17:42;;;;;;;19.80;10.63;;;5.40;99.90;;;;;;5048566;28;20029;-70
2022/02/27 10:20:27;;;;;;;21.17;10.63;;;5.50;99.90;;;;;;5048129;28;20025;-69
2022/02/27 10:22:54;;;;;;;19.50;8.43;;;5.50;99.90;;;;;;5048660;28;20032;-69
2022/02/27 10:25:25;;;;;;;15.75;9.75;;;5.60;99.90;;;;;;5047698;28;20105;-69
2022/02/27 10:27:55;;;;;;;21.98;10.48;;;5.60;99.90;;;;;;5048175;28;20040;-68
2022/02/27 10:30:23;;;;;;;21.30;10.07;;;5.60;99.90;;;;;;5047424;28;20130;-69
2022/02/27 10:33:00;;;;;;;18.23;10.45;;;5.60;99.90;;;;;;5047015;28;20025;-69
2022/02/27 10:35:36;;;;;;;20.80;10.32;;;5.70;99.90;;;;;;5045980;28;20433;-69
2022/02/27 10:38:02;;;;;;;19.70;11.60;;;5.70;99.90;;;;;;5046923;28;20485;-69
2022/02/27 10:40:32;;;;;;;19.38;10.68;;;5.70;99.90;;;;;;5042525;28;20052;-70
2022/02/27 10:42:59;;;;;;;18.88;12.18;;;5.70;99.90;;;;;;5046841;28;20567;-69
2022/02/27 10:45:26;;;;;;;19.88;9.23;;;5.70;99.90;;;;;;5045687;28;20048;-70
2022/02/27 10:48:02;;;;;;;22.33;10.40;;;5.80;99.90;;;;;;5047074;28;20025;-69
2022/02/27 10:50:28;;;;;;;19.75;10.85;;;5.80;99.90;;;;;;5046796;28;20357;-69
2022/02/27 10:52:54;;;;;;;17.77;10.38;;;5.90;99.90;;;;;;5048555;28;20027;-69
2022/02/27 10:55:20;;;;;;;21.17;10.10;;;5.90;99.90;;;;;;5047996;28;20025;-69
2022/02/27 10:57:46;;;;;;;;;;;6.00;99.90;;;;;;5048229;28;20397;-69
2022/02/27 11:00:23;;;;;;;17.63;10.02;;;6.00;99.90;;;;;;5045089;28;20288;-69
2022/02/27 11:02:51;;;;;;;19.65;10.27;;;6.10;99.90;;;;;;5048206;28;20033;-69
2022/02/27 11:05:19;;;;;;;26.25;11.38;;;6.30;99.90;;;;;;5045641;28;20028;-70
2022/02/27 11:07:47;;;;;;;21.48;10.88;;;6.30;99.90;;;;;;5046880;28;20075;-69
2022/02/27 11:10:16;;;;;;;22.27;11.60;;;6.50;99.90;;;;;;5046019;28;20028;-69
2022/02/27 11:12:42;;;;;;;21.02;11.60;;;6.50;99.90;;;;;;5046588;28;20509;-70
2022/02/27 11:15:10;;;;;;;27.35;11.88;;;6.60;99.90;;;;;;5045665;28;20041;-70
2022/02/27 11:17:36;;;;;;;23.58;12.50;;;6.70;99.90;;;;;;5046829;28;20051;-69
2022/02/27 11:20:04;;;;;;;;;;;6.80;99.90;;;;;;5046204;28;20036;-70
2022/02/27 11:22:30;;;;;;;19.25;9.75;;;6.90;99.90;;;;;;5047136;28;19920;-69
2022/02/27 11:24:57;;;;;;;20.90;9.65;;;7.00;99.90;;;;;;5046153;28;20024;-70
2022/02/27 11:27:27;;;;;;;21.13;12.40;;;7.00;99.90;;;;;;5047476;28;20124;-70
2022/02/27 11:29:57;;;;;;;23.27;11.38;;;7.10;99.90;;;;;;5044874;28;20043;-70
2022/02/27 11:32:23;;;;;;;18.55;10.60;;;7.20;99.90;;;;;;5047444;28;20036;-70
2022/02/27 11:34:49;;;;;;;18.38;10.02;;;7.30;99.90;;;;;;5046443;28;20033;-70
2022/02/27 11:37:14;;;;;;;18.63;8.70;;;7.50;99.90;;;;;;5059561;22;20499;-81
2022/02/27 11:42:47;;;;;;;12.10;7.10;;;7.60;99.60;;;;;;5036884;28;20127;-79
2022/02/27 11:45:13;;;;;;;9.68;6.40;;;7.50;99.90;;;;;;5036006;28;20528;-78
2022/02/27 11:47:49;;;;;;;14.05;6.63;;;7.50;99.20;;;;;;5036919;28;20025;-79
2022/02/27 11:50:39;;;;;;;16.20;5.20;;;7.50;99.20;;;;;;5035847;28;20040;-81
2022/02/27 11:53:25;;;;;;;14.10;7.13;;;7.40;98.00;;;;;;5034253;28;20503;-79
2022/02/27 11:55:54;;;;;;;16.73;6.00;;;7.40;98.70;;;;;;5031009;28;20033;-82
2022/02/27 11:58:37;;;;;;;13.75;6.68;;;7.50;98.20;;;;;;5034593;28;20508;-79
2022/02/27 12:01:04;;;;;;;15.82;6.88;;;7.50;98.20;;;;;;5036718;28;20045;-80
2022/02/27 12:03:29;;;;;;;16.48;7.60;;;7.50;97.90;;;;;;5039147;28;20037;-82
2022/02/27 12:05:55;;;;;;;21.15;6.57;;;7.60;98.00;;;;;;5033560;28;20159;-79
2022/02/27 12:08:42;;;;;;;12.80;6.40;;;7.60;97.80;;;;;;5035899;28;20029;-80
2022/02/27 12:11:26;;;;;;;10.10;4.55;;;7.60;97.60;;;;;;5037007;28;20045;-79
2022/02/27 12:13:58;;;;;;;11.82;5.60;;;7.70;96.30;;;;;;5032937;28;20031;-79
2022/02/27 12:16:42;;;;;;;8.20;4.60;;;7.70;94.90;;;;;;5034499;28;20521;-80
2022/02/27 12:19:21;;;;;;;9.27;5.07;;;7.70;95.10;;;;;;5036721;28;20033;-80
2022/02/27 12:21:49;;;;;;;13.43;5.78;;;7.70;95.40;;;;;;5035674;28;20514;-79
2022/02/27 12:24:26;;;;;;;11.93;5.70;;;7.70;95.80;;;;;;5036462;28;20032;-79
2022/02/27 12:27:00;;;;;;;15.02;7.43;;;7.90;96.10;;;;;;5032281;28;20030;-76
2022/02/27 12:29:46;;;;;;;14.18;7.00;;;7.90;96.10;;;;;;5032196;28;20098;-76
2022/02/27 12:32:15;;;;;;;10.95;5.93;;;7.90;95.40;;;;;;5030908;28;20035;-76
2022/02/27 12:34:44;;;;;;;12.02;6.22;;;7.90;94.00;;;;;;5037068;28;20033;-76
2022/02/27 12:37:11;;;;;;;15.15;6.47;;;7.80;93.20;;;;;;5036435;28;20029;-76
2022/02/27 12:39:39;;;;;;;16.83;6.75;;;7.80;95.50;;;;;;5036321;28;20424;-76
2022/02/27 12:42:07;;;;;;;15.88;7.28;;;7.90;95.50;;;;;;5035002;28;20024;-76
2022/02/27 12:44:41;;;;;;;10.45;4.68;;;8.00;93.30;;;;;;5036091;28;20139;-76
2022/02/27 12:47:13;;;;;;;10.13;5.75;;;8.00;92.30;;;;;;5034207;28;20104;-76
2022/02/27 12:52:37;;;;;;;7.93;5.30;;;8.20;94.20;;;;;;5037702;28;20040;-76